Time;durP1;ratioP1;P1;durP2;ratioP2;P2;SDS_P1;SDS_P2;PMS_P1;PMS_P2;Temp;Humidity;BMP_temperature;BMP_pressure;BME280_temperature;BME280_humidity;BME280_pressure;Samples;Min_cycle;Max_cycle;Signal;HPM_P1;HPM_P2
2023/08/04 00:01:08;;;;;;;;;;;;;;;28.48;55.85;100896.84;5074170;28;20432;-86
2023/08/04 00:03:34;;;;;;;;;;;;;;;28.48;55.63;100896.84;5073192;28;19919;-87
2023/08/04 00:05:59;;;;;;;;;;;;;;;28.49;55.71;100900.47;5074004;28;20365;-86
2023/08/04 00:08:24;;;;;;;;;;;;;;;28.47;55.82;100896.88;5090088;28;19911;-87
2023/08/04 00:10:50;;;;;;;;;;;;;;;28.48;55.54;100898.66;5076211;28;19908;-86
2023/08/04 00:13:15;;;;;;;;;;;;;;;28.46;55.76;100901.38;5105491;28;19911;-86
2023/08/04 00:15:41;;;;;;;;;;;;;;;28.46;55.89;100898.69;5097846;28;19945;-87
2023/08/04 00:18:06;;;;;;;;;;;;;;;28.46;55.87;100897.81;5080371;28;20381;-85
2023/08/04 00:20:31;;;;;;;;;;;;;;;28.45;55.81;100891.56;5076253;28;20360;-86
2023/08/04 00:22:57;;;;;;;;;;;;;;;28.45;55.71;100899.63;5086577;28;19912;-85
2023/08/04 00:25:22;;;;;;;;;;;;;;;28.44;55.78;100887.06;5100323;28;20405;-87
2023/08/04 00:27:48;;;;;;;;;;;;;;;28.43;55.85;100896.06;5084399;28;20318;-87
2023/08/04 00:30:13;;;;;;;;;;;;;;;28.44;55.86;100892.44;5089999;28;20314;-87
2023/08/04 00:32:39;;;;;;;;;;;;;;;28.43;55.85;100882.63;5097764;28;20393;-87
2023/08/04 00:35:05;;;;;;;;;;;;;;;28.43;55.90;100886.19;5099142;28;19912;-86
2023/08/04 00:37:34;;;;;;;;;;;;;;;28.41;55.93;100892.53;5097409;28;19908;-86
2023/08/04 00:40:00;;;;;;;;;;;;;;;28.40;55.89;100888.94;5084768;28;19916;-87
2023/08/04 00:42:25;;;;;;;;;;;;;;;28.39;56.00;100888.97;5084826;28;19908;-87
2023/08/04 00:44:50;;;;;;;;;;;;;;;28.38;55.97;100884.50;5110932;28;19918;-85
2023/08/04 00:47:16;;;;;;;;;;;;;;;28.39;55.81;100886.28;5097892;28;19947;-85
2023/08/04 00:49:41;;;;;;;;;;;;;;;28.39;55.70;100881.78;5118135;28;19943;-86
2023/08/04 00:52:08;;;;;;;;;;;;;;;28.39;55.95;100879.09;5109388;28;20453;-86
2023/08/04 00:54:34;;;;;;;;;;;;;;;28.38;55.94;100871.06;5079286;28;19949;-85
2023/08/04 00:56:59;;;;;;;;;;;;;;;28.37;56.03;100870.19;5089015;28;20464;-86
2023/08/04 00:59:25;;;;;;;;;;;;;;;28.39;55.94;100862.13;5102693;28;20671;-86
2023/08/04 01:01:50;;;;;;;;;;;;;;;28.37;56.07;100864.81;5075917;28;20407;-86
2023/08/04 01:04:16;;;;;;;;;;;;;;;28.36;56.06;100855.00;5097622;28;19912;-87
2023/08/04 01:07:00;;;;;;;;;;;;;;;28.36;56.06;100851.41;5087846;28;19926;-87
2023/08/04 01:09:42;;;;;;;;;;;;;;;28.34;56.06;100864.88;5078272;28;20454;-86
2023/08/04 01:12:11;;;;;;;;;;;;;;;28.34;56.17;100870.25;5060640;28;19912;-86
2023/08/04 01:14:37;;;;;;;;;;;;;;;28.34;56.12;100861.28;5091970;28;20523;-86
2023/08/04 01:17:03;;;;;;;;;;;;;;;28.34;55.92;100859.53;5086767;28;19912;-87
2023/08/04 01:19:29;;;;;;;;;;;;;;;28.33;55.96;100863.09;5091702;28;19915;-86
2023/08/04 01:21:54;;;;;;;;;;;;;;;28.33;55.98;100865.78;5085701;28;20185;-84
2023/08/04 01:24:20;;;;;;;;;;;;;;;28.33;56.06;100863.09;5077048;28;19950;-88
2023/08/04 01:26:45;;;;;;;;;;;;;;;28.33;56.08;100862.22;5082604;28;20346;-86
2023/08/04 01:29:11;;;;;;;;;;;;;;;28.33;56.17;100862.22;5108641;28;19961;-86
2023/08/04 01:31:37;;;;;;;;;;;;;;;28.32;56.15;100864.03;5077798;28;19908;-85
2023/08/04 01:34:02;;;;;;;;;;;;;;;28.32;56.15;100864.03;5087659;28;19955;-86
2023/08/04 01:36:28;;;;;;;;;;;;;;;28.30;56.27;100870.31;5090075;28;20048;-86
2023/08/04 01:38:55;;;;;;;;;;;;;;;28.31;56.06;100866.72;5079977;28;19916;-86
2023/08/04 01:41:22;;;;;;;;;;;;;;;28.30;56.15;100860.47;5076788;28;20010;-86
2023/08/04 01:43:47;;;;;;;;;;;;;;;28.29;56.20;100865.88;5077408;28;19919;-86
2023/08/04 01:46:13;;;;;;;;;;;;;;;28.30;56.40;100868.53;5068559;28;20296;-86
2023/08/04 01:48:38;;;;;;;;;;;;;;;28.30;56.05;100863.16;5088170;28;19908;-85
2023/08/04 01:51:04;;;;;;;;;;;;;;;28.29;56.17;100864.06;5075383;28;19912;-86
2023/08/04 01:53:30;;;;;;;;;;;;;;;28.27;56.42;100857.84;5075780;28;19973;-87
2023/08/04 01:55:55;;;;;;;;;;;;;;;28.28;56.08;100864.09;5097114;28;19983;-86
2023/08/04 01:58:21;;;;;;;;;;;;;;;28.26;56.33;100864.13;5120098;28;19969;-87
2023/08/04 02:00:46;;;;;;;;;;;;;;;28.28;56.17;100869.47;5090125;28;19916;-85
2023/08/04 02:03:12;;;;;;;;;;;;;;;28.26;56.45;100873.97;5118119;28;19968;-85
2023/08/04 02:05:37;;;;;;;;;;;;;;;28.25;56.28;100869.53;5102605;28;20596;-86
2023/08/04 02:08:03;;;;;;;;;;;;;;;28.23;56.25;100867.72;5089814;28;19954;-85
2023/08/04 02:10:28;;;;;;;;;;;;;;;28.24;56.42;100865.97;5118414;28;20368;-85
2023/08/04 02:12:53;;;;;;;;;;;;;;;28.22;56.39;100868.66;5083460;28;19922;-86
2023/08/04 02:15:19;;;;;;;;;;;;;;;28.23;56.43;100873.09;5076730;28;20404;-88
2023/08/04 02:17:44;;;;;;;;;;;;;;;28.23;56.12;100882.97;5108506;28;19922;-86
2023/08/04 02:20:10;;;;;;;;;;;;;;;28.22;56.19;100881.22;5080999;28;20060;-85
2023/08/04 02:22:35;;;;;;;;;;;;;;;28.21;56.21;100887.47;5100788;28;20349;-85
2023/08/04 02:25:01;;;;;;;;;;;;;;;28.19;56.26;100884.84;5077310;28;19916;-86
2023/08/04 02:27:26;;;;;;;;;;;;;;;28.18;56.29;100883.06;5082147;28;20416;-86
2023/08/04 02:29:52;;;;;;;;;;;;;;;28.20;56.51;100893.78;5094472;28;19919;-85
2023/08/04 02:32:18;;;;;;;;;;;;;;;28.19;56.45;100892.91;5094511;28;20359;-86
2023/08/04 02:34:43;;;;;;;;;;;;;;;28.17;56.58;100886.66;5094882;28;19916;-86
2023/08/04 02:37:09;;;;;;;;;;;;;;;28.18;56.36;100890.22;5100292;28;20400;-86
2023/08/04 02:39:34;;;;;;;;;;;;;;;28.18;56.64;100888.44;5078151;28;20380;-86
2023/08/04 02:42:00;;;;;;;;;;;;;;;28.18;56.56;100892.91;5103988;28;20387;-85
2023/08/04 02:44:25;;;;;;;;;;;;;;;28.16;56.45;100900.13;5088754;28;19961;-86
2023/08/04 02:46:52;;;;;;;;;;;;;;;28.14;56.40;100900.13;5017196;28;1733919;-85
2023/08/04 02:49:17;;;;;;;;;;;;;;;28.15;56.46;100901.91;5102567;27;19911;-85
2023/08/04 02:51:42;;;;;;;;;;;;;;;28.15;56.66;100901.00;5115163;27;19908;-85
2023/08/04 02:54:09;;;;;;;;;;;;;;;28.16;56.68;100906.34;5102220;28;20301;-85
2023/08/04 02:56:34;;;;;;;;;;;;;;;28.17;56.50;100910.84;5079233;28;19912;-85
2023/08/04 02:59:00;;;;;;;;;;;;;;;28.16;56.54;100905.47;5076904;28;19916;-85
2023/08/04 03:01:25;;;;;;;;;;;;;;;28.14;56.51;100907.31;5098936;28;19920;-86
2023/08/04 03:03:51;;;;;;;;;;;;;;;28.14;56.59;100904.63;5097189;27;19915;-86
2023/08/04 03:06:16;;;;;;;;;;;;;;;28.13;56.58;100900.16;5095075;28;19968;-85
2023/08/04 03:08:42;;;;;;;;;;;;;;;28.13;56.53;100908.19;5104771;28;19920;-86
2023/08/04 03:11:08;;;;;;;;;;;;;;;28.12;56.32;100904.63;5080960;28;19907;-87
2023/08/04 03:13:41;;;;;;;;;;;;;;;28.13;56.33;100908.19;5080918;28;20358;-86
2023/08/04 03:16:07;;;;;;;;;;;;;;;28.10;56.79;100916.31;5090469;28;20399;-85
2023/08/04 03:18:33;;;;;;;;;;;;;;;28.12;56.61;100909.13;5092085;28;19918;-86
2023/08/04 03:24:04;;;;;;;;;;;;;;;28.10;56.78;100917.19;5092132;28;19915;-87
2023/08/04 03:26:30;;;;;;;;;;;;;;;28.08;56.37;100920.81;5091613;28;19912;-87
2023/08/04 03:28:55;;;;;;;;;;;;;;;28.07;56.56;100924.41;5072627;28;19912;-87
2023/08/04 03:31:21;;;;;;;;;;;;;;;28.08;56.82;100926.19;5078082;28;20331;-87
2023/08/04 03:33:46;;;;;;;;;;;;;;;28.09;56.46;100919.91;5078814;28;20368;-87
2023/08/04 03:36:12;;;;;;;;;;;;;;;28.09;56.77;100930.63;5077635;28;19924;-87
2023/08/04 03:38:37;;;;;;;;;;;;;;;28.08;56.49;100929.75;5103880;28;19950;-87
2023/08/04 03:41:03;;;;;;;;;;;;;;;28.06;56.66;100934.25;5084748;28;19916;-86
2023/08/04 03:43:28;;;;;;;;;;;;;;;28.07;56.58;100928.00;5088827;28;19942;-85
2023/08/04 03:45:53;;;;;;;;;;;;;;;28.08;56.58;100931.56;5093093;28;19959;-86
2023/08/04 03:48:19;;;;;;;;;;;;;;;28.06;56.76;100936.06;5114364;27;20373;-86
2023/08/04 03:50:44;;;;;;;;;;;;;;;28.06;56.64;100936.94;5119109;27;20307;-86
2023/08/04 03:53:13;;;;;;;;;;;;;;;28.06;56.83;100936.06;5090730;27;20325;-86
2023/08/04 03:55:38;;;;;;;;;;;;;;;28.06;56.85;100941.44;5093758;28;19912;-87
2023/08/04 03:58:04;;;;;;;;;;;;;;;28.05;56.92;100937.88;5101643;27;19921;-87
2023/08/04 04:00:31;;;;;;;;;;;;;;;28.04;56.54;100949.50;5104402;28;19915;-86
2023/08/04 04:02:56;;;;;;;;;;;;;;;28.04;56.71;100946.81;5083985;28;19919;-87
2023/08/04 04:05:21;;;;;;;;;;;;;;;28.04;56.61;100951.31;5114782;27;19911;-87
2023/08/04 04:07:50;;;;;;;;;;;;;;;27.89;56.67;100929.16;5097481;27;19913;-87
2023/08/04 04:10:18;;;;;;;;;;;;;;;28.02;56.62;100956.69;5095077;28;19941;-86
2023/08/04 04:12:44;;;;;;;;;;;;;;;28.01;56.89;100955.81;5087523;27;19972;-86
2023/08/04 04:15:09;;;;;;;;;;;;;;;28.01;56.77;100950.44;5123058;27;19911;-86
2023/08/04 04:17:35;;;;;;;;;;;;;;;28.00;56.95;100955.84;5100955;28;19918;-86
2023/08/04 04:20:01;;;;;;;;;;;;;;;28.01;56.58;100953.13;5093398;28;20354;-88
2023/08/04 04:22:26;;;;;;;;;;;;;;;28.01;56.90;100961.19;5092932;28;19922;-88
2023/08/04 04:24:52;;;;;;;;;;;;;;;27.98;56.74;100954.97;5091852;28;19915;-87
2023/08/04 04:27:17;;;;;;;;;;;;;;;28.02;56.60;100956.69;5100800;28;20433;-87
2023/08/04 04:29:43;;;;;;;;;;;;;;;28.00;56.60;100962.13;5099199;28;19912;-87
2023/08/04 04:32:08;;;;;;;;;;;;;;;27.99;56.95;100952.28;5102449;28;20377;-87
2023/08/04 04:34:34;;;;;;;;;;;;;;;27.97;56.74;100959.47;5111096;28;20296;-87
2023/08/04 04:36:59;;;;;;;;;;;;;;;27.99;56.58;100954.06;5093405;28;20002;-88
2023/08/04 04:39:25;;;;;;;;;;;;;;;27.98;56.76;100963.03;5098511;28;19943;-87
2023/08/04 04:41:51;;;;;;;;;;;;;;;28.00;56.61;100959.44;5099207;28;19916;-89
2023/08/04 04:44:16;;;;;;;;;;;;;;;27.98;56.80;100949.59;5100492;28;20439;-87
2023/08/04 04:46:41;;;;;;;;;;;;;;;27.99;56.72;100960.31;5102056;28;19916;-88
2023/08/04 04:49:18;;;;;;;;;;;;;;;27.96;56.80;100956.78;5098317;28;19919;-90
2023/08/04 04:51:45;;;;;;;;;;;;;;;27.95;56.82;100963.97;5081197;28;20399;-91
2023/08/04 04:54:10;;;;;;;;;;;;;;;27.99;56.89;100959.44;5091721;28;19911;-90
2023/08/04 04:56:36;;;;;;;;;;;;;;;27.96;56.56;100965.75;5096981;28;19918;-87
2023/08/04 04:59:02;;;;;;;;;;;;;;;27.99;56.69;100971.06;5096487;28;19912;-87
2023/08/04 05:01:27;;;;;;;;;;;;;;;27.97;56.82;100964.81;5093938;28;20459;-86
2023/08/04 05:03:53;;;;;;;;;;;;;;;27.96;56.72;100965.75;5090935;28;20570;-87
2023/08/04 05:06:42;;;;;;;;;;;;;;;27.86;57.34;100972.16;5090580;28;20369;-94
2023/08/04 05:09:08;;;;;;;;;;;;;;;27.89;57.77;100969.41;5102975;28;19908;-88
2023/08/04 05:11:34;;;;;;;;;;;;;;;27.95;56.85;100971.13;5093822;28;19916;-86
2023/08/04 05:14:00;;;;;;;;;;;;;;;28.02;55.40;100967.44;5097340;28;19915;-86
2023/08/04 05:16:25;;;;;;;;;;;;;;;28.03;54.71;100974.59;5111022;28;19919;-86
2023/08/04 05:18:51;;;;;;;;;;;;;;;28.04;54.31;100975.47;5083613;28;19995;-87
2023/08/04 05:21:16;;;;;;;;;;;;;;;28.09;53.85;100973.59;5084895;28;19908;-87
2023/08/04 05:23:42;;;;;;;;;;;;;;;28.14;53.53;100977.13;5094640;28;19998;-86
2023/08/04 05:26:08;;;;;;;;;;;;;;;28.19;52.99;100967.19;5110529;27;19908;-87
2023/08/04 05:28:33;;;;;;;;;;;;;;;28.20;53.56;100968.97;5093974;28;19912;-87
2023/08/04 05:31:00;;;;;;;;;;;;;;;28.23;52.98;100964.41;5109016;27;19994;-88
2023/08/04 05:33:25;;;;;;;;;;;;;;;28.24;52.86;100962.63;5091770;28;20015;-87
2023/08/04 05:35:51;;;;;;;;;;;;;;;28.28;52.66;100968.81;5102763;28;19958;-87
2023/08/04 05:38:17;;;;;;;;;;;;;;;28.32;52.47;100959.81;5100912;28;20615;-87
2023/08/04 05:40:43;;;;;;;;;;;;;;;28.35;52.31;100967.84;5088016;28;19916;-88
2023/08/04 05:43:09;;;;;;;;;;;;;;;28.36;52.00;100969.59;5110937;28;20420;-86
2023/08/04 05:45:35;;;;;;;;;;;;;;;28.37;52.82;100966.00;5080904;28;19960;-88
2023/08/04 05:48:08;;;;;;;;;;;;;;;28.39;52.89;100969.56;5119408;28;19919;-88
2023/08/04 05:50:37;;;;;;;;;;;;;;;28.38;52.20;100968.66;5100434;28;19916;-87
2023/08/04 05:56:05;;;;;;;;;;;;;;;28.41;51.80;100973.09;5100119;28;20023;-89
2023/08/04 05:58:40;;;;;;;;;;;;;;;28.49;51.42;100978.38;5105123;28;19951;-88
2023/08/04 06:01:10;;;;;;;;;;;;;;;28.49;51.90;100979.28;5114524;28;19912;-89
2023/08/04 06:03:35;;;;;;;;;;;;;;;28.48;51.60;100988.19;5092015;28;20305;-87
2023/08/04 06:06:28;;;;;;;;;;;;;;;28.46;51.53;100984.66;5094981;28;19976;-89
2023/08/04 06:09:12;;;;;;;;;;;;;;;28.48;51.16;100996.25;5106527;28;19912;-88
2023/08/04 06:11:38;;;;;;;;;;;;;;;28.49;51.27;100994.50;5103487;28;20300;-87
2023/08/04 06:14:07;;;;;;;;;;;;;;;28.52;50.90;100997.13;5100697;28;19969;-88
2023/08/04 06:16:39;;;;;;;;;;;;;;;28.51;50.95;101001.63;5099029;28;19972;-87
2023/08/04 06:19:21;;;;;;;;;;;;;;;28.48;50.89;100996.25;5107271;28;19963;-87
2023/08/04 06:25:15;;;;;;;;;;;;;;;28.51;50.77;100998.94;5104875;28;19981;-89
2023/08/04 06:28:25;;;;;;;;;;;;;;;28.54;50.64;100995.31;5121707;28;19907;-90
2023/08/04 06:30:52;;;;;;;;;;;;;;;28.57;50.25;100987.19;5101097;27;19912;-90
2023/08/04 06:33:17;;;;;;;;;;;;;;;28.56;50.66;100997.06;5112865;28;19929;-87
2023/08/04 06:35:56;;;;;;;;;;;;;;;28.56;50.60;100989.00;5103638;28;20217;-88
2023/08/04 06:38:46;;;;;;;;;;;;;;;28.60;50.40;100992.53;5096688;28;19912;-87
2023/08/04 06:42:02;;;;;;;;;;;;;;;28.60;50.13;100997.91;5102486;28;19987;-87
2023/08/04 06:44:55;;;;;;;;;;;;;;;28.68;50.01;100998.66;5101268;28;19908;-87
2023/08/04 06:47:47;;;;;;;;;;;;;;;28.63;50.01;101004.09;5089296;28;19920;-87
2023/08/04 06:50:12;;;;;;;;;;;;;;;28.69;49.93;101004.91;5104695;28;19918;-87
2023/08/04 06:52:40;;;;;;;;;;;;;;;28.63;50.20;101000.53;5112795;28;19907;-86
2023/08/04 06:55:15;;;;;;;;;;;;;;;28.60;49.96;100995.22;5095133;28;19955;-86
2023/08/04 06:57:40;;;;;;;;;;;;;;;28.61;49.93;101002.34;5091580;28;19915;-87
2023/08/04 07:00:09;;;;;;;;;;;;;;;28.68;49.83;100997.75;5104455;28;19915;-87
2023/08/04 07:03:03;;;;;;;;;;;;;;;28.71;49.59;101005.78;5110677;28;19912;-87
2023/08/04 07:05:35;;;;;;;;;;;;;;;28.69;49.72;101011.16;5107933;28;19919;-85
2023/08/04 07:08:39;;;;;;;;;;;;;;;28.74;49.58;101003.91;5101453;28;20396;-86
2023/08/04 07:11:04;;;;;;;;;;;;;;;28.74;49.68;101013.78;5101351;28;19999;-85
2023/08/04 07:13:45;;;;;;;;;;;;;;;28.71;49.74;101012.03;5095197;28;19998;-86
2023/08/04 07:16:18;;;;;;;;;;;;;;;28.81;49.42;101016.34;5111052;28;19907;-87
2023/08/04 07:19:02;;;;;;;;;;;;;;;28.77;49.47;101014.63;5090852;28;19915;-87
2023/08/04 07:21:29;;;;;;;;;;;;;;;28.81;49.35;101016.34;5098320;28;19908;-87
2023/08/04 07:27:07;;;;;;;;;;;;;;;28.86;49.11;101023.44;5103632;28;19958;-85
2023/08/04 07:29:34;;;;;;;;;;;;;;;28.83;49.27;101019.88;5092341;28;20373;-87
2023/08/04 07:32:47;;;;;;;;;;;;;;;28.90;49.11;101031.41;5092573;28;19908;-86
2023/08/04 07:35:34;;;;;;;;;;;;;;;28.79;49.48;101030.72;5047947;28;19912;-86
2023/08/04 07:38:02;;;;;;;;;;;;;;;28.88;49.49;101024.31;5033242;28;19940;-87
2023/08/04 07:40:28;;;;;;;;;;;;;;;28.92;49.35;101031.41;5109202;27;20023;-85
2023/08/04 07:42:53;;;;;;;;;;;;;;;28.98;49.12;101025.91;5112499;27;20389;-85
2023/08/04 07:45:21;;;;;;;;;;;;;;;29.01;48.76;101031.22;5117635;27;20354;-86
2023/08/04 07:47:49;;;;;;;;;;;;;;;28.99;49.08;101028.56;5108789;28;20014;-86
2023/08/04 07:50:15;;;;;;;;;;;;;;;28.95;49.13;101029.50;5114222;27;19917;-87
2023/08/04 07:52:44;;;;;;;;;;;;;;;29.00;48.88;101034.84;5113657;27;20390;-88
2023/08/04 07:55:12;;;;;;;;;;;;;;;28.96;48.92;101035.81;5110095;27;19915;-86
2023/08/04 07:57:40;;;;;;;;;;;;;;;28.94;49.11;101041.19;5095661;27;20377;-87
2023/08/04 08:00:31;;;;;;;;;;;;;;;28.92;49.19;101037.66;5104835;28;19916;-87
2023/08/04 08:06:04;;;;;;;;;;;;;;;29.04;53.01;101039.22;5119144;27;19968;-86
2023/08/04 08:08:30;;;;;;;;;;;;;;;29.04;50.99;101041.91;5097424;28;19934;-87
2023/08/04 08:11:19;;;;;;;;;;;;;;;29.10;50.18;101044.53;5094512;28;19922;-88
2023/08/04 08:14:09;;;;;;;;;;;;;;;29.04;49.94;101044.59;5110225;28;19911;-87
2023/08/04 08:16:36;;;;;;;;;;;;;;;29.17;49.67;101031.88;5108688;28;19912;-87
2023/08/04 08:19:01;;;;;;;;;;;;;;;29.07;49.97;101039.19;5086523;28;20045;-88
2023/08/04 08:21:27;;;;;;;;;;;;;;;29.06;49.74;101042.75;5109437;28;20102;-87
2023/08/04 08:23:52;;;;;;;;;;;;;;;29.09;49.61;101041.84;5103608;28;19919;-88
2023/08/04 08:26:18;;;;;;;;;;;;;;;29.05;49.64;101040.13;5099573;28;19908;-86
2023/08/04 08:28:43;;;;;;;;;;;;;;;29.19;49.54;101032.72;5105299;28;19918;-88
2023/08/04 08:31:09;;;;;;;;;;;;;;;29.12;49.27;101047.19;5100305;28;19951;-88
2023/08/04 08:33:35;;;;;;;;;;;;;;;29.11;49.46;101040.06;5079793;28;20006;-86
2023/08/04 08:36:00;;;;;;;;;;;;;;;29.14;49.43;101045.34;5094753;28;20411;-87
2023/08/04 08:38:26;;;;;;;;;;;;;;;29.09;49.50;101040.03;5104810;28;19951;-87
2023/08/04 08:40:51;;;;;;;;;;;;;;;29.16;49.36;101043.53;5102939;28;20522;-88
2023/08/04 08:43:17;;;;;;;;;;;;;;;29.19;49.21;101035.41;5095907;28;19919;-87
2023/08/04 08:45:42;;;;;;;;;;;;;;;29.09;49.43;101041.84;5095298;28;20320;-87
2023/08/04 08:48:08;;;;;;;;;;;;;;;29.13;49.48;101039.09;5107174;28;20050;-87
2023/08/04 08:50:33;;;;;;;;;;;;;;;29.11;49.24;101048.13;5091467;28;20395;-88
2023/08/04 08:53:01;;;;;;;;;;;;;;;29.18;49.13;101041.69;5091063;28;19908;-87
2023/08/04 08:55:27;;;;;;;;;;;;;;;29.20;51.12;101045.25;5091786;28;20328;-87
2023/08/04 08:57:53;;;;;;;;;;;;;;;29.15;50.13;101047.16;5097865;28;19912;-89
2023/08/04 09:00:20;;;;;;;;;;;;;;;29.09;49.80;101048.09;5095909;28;20435;-89
2023/08/04 09:02:46;;;;;;;;;;;;;;;29.11;49.62;101042.75;5085576;28;20316;-88
2023/08/04 09:05:13;;;;;;;;;;;;;;;29.13;49.54;101047.16;5099062;28;19914;-87
2023/08/04 09:07:44;;;;;;;;;;;;;;;29.16;49.35;101052.47;5105755;28;20396;-86
2023/08/04 09:10:10;;;;;;;;;;;;;;;29.14;49.48;101040.84;5110379;28;20305;-87
2023/08/04 09:13:02;;;;;;;;;;;;;;;29.21;49.28;101042.53;5101692;28;19918;-88
2023/08/04 09:15:58;;;;;;;;;;;;;;;29.18;49.32;101045.28;5105595;28;19915;-88
2023/08/04 09:18:51;;;;;;;;;;;;;;;29.17;49.49;101040.81;5114570;28;19912;-89
2023/08/04 09:24:29;;;;;;;;;;;;;;;29.21;49.47;101041.63;5099060;28;19944;-88
2023/08/04 09:26:55;;;;;;;;;;;;;;;29.21;49.59;101045.22;5108871;28;20068;-88
2023/08/04 09:29:20;;;;;;;;;;;;;;;29.23;49.22;101045.19;5107657;28;19984;-87
2023/08/04 09:31:49;;;;;;;;;;;;;;;29.24;49.02;101038.91;5097445;28;19916;-90
2023/08/04 09:34:15;;;;;;;;;;;;;;;29.23;49.12;101039.78;5109869;28;20002;-89
2023/08/04 09:36:46;;;;;;;;;;;;;;;29.22;49.28;101043.41;5107442;28;20528;-91
2023/08/04 09:39:14;;;;;;;;;;;;;;;29.23;49.54;101034.41;5098279;28;19969;-89
2023/08/04 09:41:43;;;;;;;;;;;;;;;29.36;51.70;101035.97;5102290;28;20443;-89
2023/08/04 09:44:10;;;;;;;;;;;;;;;29.31;52.06;101028.91;5105642;27;20393;-88
2023/08/04 09:46:54;;;;;;;;;;;;;;;29.36;51.08;101035.97;5098829;28;19915;-87
2023/08/04 09:49:21;;;;;;;;;;;;;;;29.35;50.75;101034.19;5126759;27;20067;-88
2023/08/04 09:51:55;;;;;;;;;;;;;;;29.37;50.59;101031.47;5100364;27;19911;-87
2023/08/04 09:55:00;;;;;;;;;;;;;;;29.39;50.32;101035.91;5124467;27;19915;-89
2023/08/04 10:01:25;;;;;;;;;;;;;;;29.40;49.84;101029.63;5044098;28;19931;-91
2023/08/04 10:10:36;;;;;;;;;;;;;;;29.48;49.57;101036.63;5058108;28;19939;-89
2023/08/04 10:13:01;;;;;;;;;;;;;;;29.49;49.57;101033.03;5122477;27;19915;-91
2023/08/04 10:15:30;;;;;;;;;;;;;;;29.47;49.64;101030.38;5095890;28;19946;-89
2023/08/04 10:18:30;;;;;;;;;;;;;;;29.48;49.34;101036.63;5126855;27;20312;-87
2023/08/04 10:21:01;;;;;;;;;;;;;;;29.54;49.29;101031.13;5119374;27;19920;-88
2023/08/04 10:23:27;;;;;;;;;;;;;;;29.56;49.47;101035.56;5106925;27;20384;-88
2023/08/04 10:26:04;;;;;;;;;;;;;;;29.59;49.19;101030.13;5112353;27;19975;-90
2023/08/04 10:28:56;;;;;;;;;;;;;;;29.55;49.33;101033.81;5104673;28;19958;-86
2023/08/04 10:31:51;;;;;;;;;;;;;;;29.55;49.27;101024.81;5109857;27;19911;-89
2023/08/04 10:34:19;;;;;;;;;;;;;;;29.60;49.42;101031.00;5114227;27;19911;-89
2023/08/04 10:36:58;;;;;;;;;;;;;;;29.68;49.21;101026.34;5111343;27;19919;-90
2023/08/04 10:39:43;;;;;;;;;;;;;;;29.75;48.91;101028.03;5086294;27;19919;-85
2023/08/04 10:42:12;;;;;;;;;;;;;;;29.83;48.28;101025.19;5134991;27;20440;-87
2023/08/04 10:44:57;;;;;;;;;;;;;;;29.85;47.69;101020.66;5119215;27;19911;-87
2023/08/04 10:47:35;;;;;;;;;;;;;;;29.99;47.27;101023.00;5126797;27;19914;-88
2023/08/04 10:50:07;;;;;;;;;;;;;;;29.77;48.01;101028.88;5118411;27;19915;-88
2023/08/04 10:55:35;;;;;;;;;;;;;;;29.94;46.66;101024.94;5129996;27;20433;-88
2023/08/04 10:58:03;;;;;;;;;;;;;;;29.99;46.37;101021.22;5094301;28;19912;-89
2023/08/04 11:00:33;;;;;;;;;;;;;;;29.95;46.26;101026.69;5100611;27;19915;-89
2023/08/04 11:02:59;;;;;;;;;;;;;;;30.00;45.98;101025.69;5095176;28;19914;-87
2023/08/04 11:05:28;;;;;;;;;;;;;;;29.97;46.15;101024.84;5117017;27;19922;-90
2023/08/04 11:07:53;;;;;;;;;;;;;;;29.99;45.99;101021.22;5113453;27;20003;-86
2023/08/04 11:10:19;;;;;;;;;;;;;;;30.07;45.91;101021.03;5109014;27;20372;-88
2023/08/04 11:12:44;;;;;;;;;;;;;;;30.04;45.74;101027.38;5100278;27;19922;-87
2023/08/04 11:15:11;;;;;;;;;;;;;;;30.08;45.46;101022.81;5104928;28;19934;-88
2023/08/04 11:17:38;;;;;;;;;;;;;;;30.07;45.67;101025.53;5101765;27;19962;-89
2023/08/04 11:20:05;;;;;;;;;;;;;;;30.10;45.41;101022.75;5103009;28;20372;-88
2023/08/04 11:22:30;;;;;;;;;;;;;;;30.08;45.25;101025.53;5122844;27;19911;-90
2023/08/04 11:24:56;;;;;;;;;;;;;;;30.10;45.37;101029.06;5120593;27;19921;-89
2023/08/04 11:27:21;;;;;;;;;;;;;;;30.11;45.24;101021.84;5123570;27;19958;-87
2023/08/04 11:29:53;;;;;;;;;;;;;;;30.10;45.15;101012.91;5105145;27;20414;-90
2023/08/04 11:32:24;;;;;;;;;;;;;;;30.13;45.06;101020.91;5104088;27;19966;-88
2023/08/04 11:34:49;;;;;;;;;;;;;;;30.16;44.97;101028.00;5108398;27;19911;-88
2023/08/04 11:37:15;;;;;;;;;;;;;;;30.21;44.81;101023.44;5095552;27;20046;-89
2023/08/04 11:39:42;;;;;;;;;;;;;;;30.23;44.61;101021.56;5102786;27;19919;-87
2023/08/04 11:42:10;;;;;;;;;;;;;;;30.23;44.68;101022.47;5126361;27;20277;-88
2023/08/04 11:44:36;;;;;;;;;;;;;;;30.30;44.67;101025.91;5109340;27;20557;-89
2023/08/04 11:47:05;;;;;;;;;;;;;;;30.23;44.68;101014.38;5114101;27;19911;-89
2023/08/04 11:49:31;;;;;;;;;;;;;;;30.26;44.59;101024.19;5101499;27;19941;-90
2023/08/04 11:51:58;;;;;;;;;;;;;;;30.32;44.68;101024.06;5107851;28;19916;-87
2023/08/04 11:54:23;;;;;;;;;;;;;;;30.33;44.49;101023.16;5120744;27;19911;-87
2023/08/04 11:56:56;;;;;;;;;;;;;;;30.33;44.57;101020.47;5105764;28;19908;-91
2023/08/04 11:59:21;;;;;;;;;;;;;;;30.35;44.30;101013.22;5091867;27;19919;-89
2023/08/04 12:01:46;;;;;;;;;;;;;;;30.33;44.33;101017.78;5098371;27;19918;-90
2023/08/04 12:04:18;;;;;;;;;;;;;;;30.32;44.17;101002.53;5100806;27;19912;-88
2023/08/04 12:06:44;;;;;;;;;;;;;;;30.19;44.89;101009.09;5095659;27;19953;-91
2023/08/04 12:09:09;;;;;;;;;;;;;;;30.34;44.52;101008.75;5128956;27;19954;-87
2023/08/04 12:11:36;;;;;;;;;;;;;;;30.40;44.22;101011.31;5105604;28;19911;-88
2023/08/04 12:14:08;;;;;;;;;;;;;;;30.37;44.19;101005.09;5081774;27;20073;-90
2023/08/04 12:16:47;;;;;;;;;;;;;;;30.35;44.37;101009.63;5099222;27;19911;-89
2023/08/04 12:19:12;;;;;;;;;;;;;;;30.40;44.42;101005.91;5104462;28;20011;-89
2023/08/04 12:21:38;;;;;;;;;;;;;;;30.44;44.36;101007.63;5119399;27;20384;-88
2023/08/04 12:24:03;;;;;;;;;;;;;;;30.44;44.39;101009.44;5092224;27;19942;-88
2023/08/04 12:26:46;;;;;;;;;;;;;;;30.41;44.42;101007.69;5084448;28;19907;-88
2023/08/04 12:29:11;;;;;;;;;;;;;;;30.46;44.18;101004.91;5091369;28;19954;-89
2023/08/04 12:31:37;;;;;;;;;;;;;;;30.45;44.38;101003.09;5089554;27;19999;-88
2023/08/04 12:34:03;;;;;;;;;;;;;;;30.52;44.24;100995.75;5092900;27;19915;-87
2023/08/04 12:36:32;;;;;;;;;;;;;;;30.56;44.13;100992.06;5099567;27;20330;-88
2023/08/04 12:38:58;;;;;;;;;;;;;;;30.56;44.19;100994.75;5092818;27;19912;-86
2023/08/04 12:41:23;;;;;;;;;;;;;;;30.56;44.18;100989.34;5092762;27;19926;-89
2023/08/04 12:43:49;;;;;;;;;;;;;;;30.55;43.93;100993.00;5104467;27;20387;-90
2023/08/04 12:46:16;;;;;;;;;;;;;;;30.56;43.97;100990.22;5111420;27;20013;-88
2023/08/04 12:48:42;;;;;;;;;;;;;;;30.63;43.87;100993.69;5098926;27;19919;-87
2023/08/04 12:51:08;;;;;;;;;;;;;;;30.56;44.62;100992.06;5119434;27;20391;-87
2023/08/04 12:53:33;;;;;;;;;;;;;;;30.53;45.86;100986.75;5103939;27;19937;-87
2023/08/04 12:55:58;;;;;;;;;;;;;;;30.61;45.20;100982.94;5122382;27;19911;-85
2023/08/04 12:58:24;;;;;;;;;;;;;;;30.65;44.93;100978.34;5121331;27;19912;-88
2023/08/04 13:00:50;;;;;;;;;;;;;;;30.66;44.62;100979.25;5103387;27;20354;-88
2023/08/04 13:03:15;;;;;;;;;;;;;;;30.60;44.64;100977.56;5098477;27;20014;-87
2023/08/04 13:05:43;;;;;;;;;;;;;;;30.61;44.24;100979.38;5107067;27;19915;-86
2023/08/04 13:08:08;;;;;;;;;;;;;;;30.72;44.10;100971.00;5104350;27;19915;-87
2023/08/04 13:10:34;;;;;;;;;;;;;;;30.62;44.22;100982.00;5122572;27;19922;-88
2023/08/04 13:13:00;;;;;;;;;;;;;;;30.74;43.87;100971.84;5109733;27;20403;-88
2023/08/04 13:15:28;;;;;;;;;;;;;;;30.78;43.82;100969.00;5124104;27;19919;-87
2023/08/04 13:17:54;;;;;;;;;;;;;;;30.71;44.19;100980.00;5131866;27;19915;-87